sensor_id;sensor_type;location;lat;lon;timestamp;P1;durP1;ratioP1;P2;durP2;ratioP2
6117;SDS011;3089;48.202;11.510;2022-12-18T00:01:26;38.70;;;14.20;;
6117;SDS011;3089;48.202;11.510;2022-12-18T00:03:57;42.37;;;17.60;;
6117;SDS011;3089;48.202;11.510;2022-12-18T00:06:26;36.87;;;15.30;;
6117;SDS011;3089;48.202;11.510;2022-12-18T00:08:55;37.17;;;15.10;;
6117;SDS011;3089;48.202;11.510;2022-12-18T00:11:25;34.20;;;11.37;;
6117;SDS011;3089;48.202;11.510;2022-12-18T00:13:56;33.93;;;14.53;;
6117;SDS011;3089;48.202;11.510;2022-12-18T00:16:28;41.30;;;19.07;;
6117;SDS011;3089;48.202;11.510;2022-12-18T00:18:59;33.00;;;14.10;;
6117;SDS011;3089;48.202;11.510;2022-12-18T00:21:28;46.03;;;19.10;;
6117;SDS011;3089;48.202;11.510;2022-12-18T00:23:57;35.77;;;13.93;;
6117;SDS011;3089;48.202;11.510;2022-12-18T00:26:26;37.57;;;17.57;;
6117;SDS011;3089;48.202;11.510;2022-12-18T00:28:57;32.07;;;14.37;;
6117;SDS011;3089;48.202;11.510;2022-12-18T00:31:28;38.17;;;13.60;;
6117;SDS011;3089;48.202;11.510;2022-12-18T00:33:56;35.77;;;15.10;;
6117;SDS011;3089;48.202;11.510;2022-12-18T00:36:26;29.30;;;12.57;;
6117;SDS011;3089;48.202;11.510;2022-12-18T00:38:56;36.10;;;14.13;;
6117;SDS011;3089;48.202;11.510;2022-12-18T00:41:25;44.93;;;16.97;;
6117;SDS011;3089;48.202;11.510;2022-12-18T00:44:11;39.23;;;15.93;;
6117;SDS011;3089;48.202;11.510;2022-12-18T00:46:42;38.43;;;13.67;;
6117;SDS011;3089;48.202;11.510;2022-12-18T00:49:11;37.57;;;14.20;;
6117;SDS011;3089;48.202;11.510;2022-12-18T00:51:40;32.00;;;13.17;;
6117;SDS011;3089;48.202;11.510;2022-12-18T00:54:09;35.10;;;15.47;;
6117;SDS011;3089;48.202;11.510;2022-12-18T00:56:38;35.10;;;12.83;;
6117;SDS011;3089;48.202;11.510;2022-12-18T00:59:14;36.95;;;14.00;;
6117;SDS011;3089;48.202;11.510;2022-12-18T01:01:43;44.08;;;14.07;;
6117;SDS011;3089;48.202;11.510;2022-12-18T01:04:12;34.03;;;12.40;;
6117;SDS011;3089;48.202;11.510;2022-12-18T01:06:40;35.83;;;11.90;;
6117;SDS011;3089;48.202;11.510;2022-12-18T01:09:09;27.45;;;10.70;;
6117;SDS011;3089;48.202;11.510;2022-12-18T01:11:37;31.83;;;13.85;;
6117;SDS011;3089;48.202;11.510;2022-12-18T01:14:05;34.73;;;14.27;;
6117;SDS011;3089;48.202;11.510;2022-12-18T01:16:33;25.93;;;11.33;;
6117;SDS011;3089;48.202;11.510;2022-12-18T01:19:02;34.13;;;13.80;;
6117;SDS011;3089;48.202;11.510;2022-12-18T01:21:30;32.73;;;12.43;;
6117;SDS011;3089;48.202;11.510;2022-12-18T01:23:58;31.60;;;11.70;;
6117;SDS011;3089;48.202;11.510;2022-12-18T01:26:26;30.10;;;12.20;;
6117;SDS011;3089;48.202;11.510;2022-12-18T01:28:56;34.63;;;11.73;;
6117;SDS011;3089;48.202;11.510;2022-12-18T01:31:25;30.70;;;12.70;;
6117;SDS011;3089;48.202;11.510;2022-12-18T01:33:54;27.60;;;12.87;;
6117;SDS011;3089;48.202;11.510;2022-12-18T01:36:25;35.97;;;15.83;;
6117;SDS011;3089;48.202;11.510;2022-12-18T01:38:55;31.03;;;12.90;;
6117;SDS011;3089;48.202;11.510;2022-12-18T01:41:24;33.53;;;13.80;;
6117;SDS011;3089;48.202;11.510;2022-12-18T01:47:20;36.60;;;13.20;;
6117;SDS011;3089;48.202;11.510;2022-12-18T01:49:51;37.30;;;13.52;;
6117;SDS011;3089;48.202;11.510;2022-12-18T01:52:20;32.60;;;14.60;;
6117;SDS011;3089;48.202;11.510;2022-12-18T01:54:49;34.33;;;13.87;;
6117;SDS011;3089;48.202;11.510;2022-12-18T01:57:19;31.30;;;12.17;;
6117;SDS011;3089;48.202;11.510;2022-12-18T01:59:48;35.53;;;14.07;;
6117;SDS011;3089;48.202;11.510;2022-12-18T02:02:19;33.57;;;12.67;;
6117;SDS011;3089;48.202;11.510;2022-12-18T02:04:48;35.00;;;13.77;;
6117;SDS011;3089;48.202;11.510;2022-12-18T02:07:17;29.03;;;10.70;;
6117;SDS011;3089;48.202;11.510;2022-12-18T02:09:54;33.10;;;14.90;;
6117;SDS011;3089;48.202;11.510;2022-12-18T02:12:27;31.63;;;12.83;;
6117;SDS011;3089;48.202;11.510;2022-12-18T02:15:02;39.93;;;14.20;;
6117;SDS011;3089;48.202;11.510;2022-12-18T02:17:36;39.37;;;15.33;;
6117;SDS011;3089;48.202;11.510;2022-12-18T02:20:12;32.00;;;13.70;;
6117;SDS011;3089;48.202;11.510;2022-12-18T02:22:48;33.03;;;12.00;;
6117;SDS011;3089;48.202;11.510;2022-12-18T02:25:28;32.87;;;14.33;;
6117;SDS011;3089;48.202;11.510;2022-12-18T02:28:09;35.80;;;14.50;;
6117;SDS011;3089;48.202;11.510;2022-12-18T02:30:40;38.67;;;15.73;;
6117;SDS011;3089;48.202;11.510;2022-12-18T02:33:10;37.33;;;13.40;;
6117;SDS011;3089;48.202;11.510;2022-12-18T02:35:39;37.90;;;15.50;;
6117;SDS011;3089;48.202;11.510;2022-12-18T02:38:09;27.87;;;12.77;;
6117;SDS011;3089;48.202;11.510;2022-12-18T02:40:38;37.00;;;15.00;;
6117;SDS011;3089;48.202;11.510;2022-12-18T02:43:09;31.57;;;13.00;;
6117;SDS011;3089;48.202;11.510;2022-12-18T02:45:45;41.00;;;16.37;;
6117;SDS011;3089;48.202;11.510;2022-12-18T02:48:14;39.03;;;15.48;;
6117;SDS011;3089;48.202;11.510;2022-12-18T02:50:44;37.07;;;14.20;;
6117;SDS011;3089;48.202;11.510;2022-12-18T02:53:20;26.67;;;11.07;;
6117;SDS011;3089;48.202;11.510;2022-12-18T02:55:55;33.33;;;12.20;;
6117;SDS011;3089;48.202;11.510;2022-12-18T02:58:32;37.72;;;16.58;;
6117;SDS011;3089;48.202;11.510;2022-12-18T03:01:09;33.97;;;13.63;;
6117;SDS011;3089;48.202;11.510;2022-12-18T03:03:43;40.87;;;16.00;;
6117;SDS011;3089;48.202;11.510;2022-12-18T03:06:18;38.67;;;16.73;;
6117;SDS011;3089;48.202;11.510;2022-12-18T03:08:51;39.60;;;14.85;;
6117;SDS011;3089;48.202;11.510;2022-12-18T03:11:24;35.70;;;15.70;;
6117;SDS011;3089;48.202;11.510;2022-12-18T03:14:10;32.63;;;14.63;;
6117;SDS011;3089;48.202;11.510;2022-12-18T03:16:42;37.63;;;15.50;;
6117;SDS011;3089;48.202;11.510;2022-12-18T03:19:13;39.00;;;15.83;;
6117;SDS011;3089;48.202;11.510;2022-12-18T03:21:44;40.25;;;15.73;;
6117;SDS011;3089;48.202;11.510;2022-12-18T03:24:14;35.20;;;14.33;;
6117;SDS011;3089;48.202;11.510;2022-12-18T03:26:44;41.53;;;17.23;;
6117;SDS011;3089;48.202;11.510;2022-12-18T03:29:18;37.40;;;15.00;;
6117;SDS011;3089;48.202;11.510;2022-12-18T03:31:49;44.23;;;16.10;;
6117;SDS011;3089;48.202;11.510;2022-12-18T03:34:23;44.60;;;17.75;;
6117;SDS011;3089;48.202;11.510;2022-12-18T03:36:56;41.57;;;14.77;;
6117;SDS011;3089;48.202;11.510;2022-12-18T03:39:24;42.05;;;17.88;;
6117;SDS011;3089;48.202;11.510;2022-12-18T03:41:55;30.93;;;14.07;;
6117;SDS011;3089;48.202;11.510;2022-12-18T03:44:30;57.67;;;21.27;;
6117;SDS011;3089;48.202;11.510;2022-12-18T03:47:05;36.00;;;16.48;;
6117;SDS011;3089;48.202;11.510;2022-12-18T03:49:38;38.58;;;15.52;;
6117;SDS011;3089;48.202;11.510;2022-12-18T03:52:12;38.33;;;15.57;;
6117;SDS011;3089;48.202;11.510;2022-12-18T03:54:45;39.27;;;16.00;;
6117;SDS011;3089;48.202;11.510;2022-12-18T03:57:14;37.85;;;15.10;;
6117;SDS011;3089;48.202;11.510;2022-12-18T03:59:47;36.77;;;15.70;;
6117;SDS011;3089;48.202;11.510;2022-12-18T04:02:17;42.10;;;16.42;;
6117;SDS011;3089;48.202;11.510;2022-12-18T04:04:46;38.30;;;14.60;;
6117;SDS011;3089;48.202;11.510;2022-12-18T04:07:17;39.20;;;16.60;;
6117;SDS011;3089;48.202;11.510;2022-12-18T04:09:46;38.63;;;13.93;;
6117;SDS011;3089;48.202;11.510;2022-12-18T04:12:17;36.40;;;15.17;;
6117;SDS011;3089;48.202;11.510;2022-12-18T04:14:46;38.50;;;13.65;;
6117;SDS011;3089;48.202;11.510;2022-12-18T04:17:14;35.40;;;14.77;;
6117;SDS011;3089;48.202;11.510;2022-12-18T04:19:42;31.95;;;11.90;;
6117;SDS011;3089;48.202;11.510;2022-12-18T04:22:10;41.93;;;15.17;;
6117;SDS011;3089;48.202;11.510;2022-12-18T04:24:38;34.63;;;12.83;;
6117;SDS011;3089;48.202;11.510;2022-12-18T04:27:06;32.67;;;13.00;;
6117;SDS011;3089;48.202;11.510;2022-12-18T04:29:34;45.22;;;14.05;;
6117;SDS011;3089;48.202;11.510;2022-12-18T04:32:03;37.40;;;14.10;;
6117;SDS011;3089;48.202;11.510;2022-12-18T04:34:31;38.28;;;14.15;;
6117;SDS011;3089;48.202;11.510;2022-12-18T04:36:59;31.35;;;14.35;;
6117;SDS011;3089;48.202;11.510;2022-12-18T04:39:27;33.65;;;14.00;;
6117;SDS011;3089;48.202;11.510;2022-12-18T04:41:54;37.13;;;14.70;;
6117;SDS011;3089;48.202;11.510;2022-12-18T04:44:22;31.10;;;12.23;;
6117;SDS011;3089;48.202;11.510;2022-12-18T04:46:50;28.70;;;13.43;;
6117;SDS011;3089;48.202;11.510;2022-12-18T04:49:19;35.23;;;14.97;;
6117;SDS011;3089;48.202;11.510;2022-12-18T04:51:47;34.17;;;14.03;;
6117;SDS011;3089;48.202;11.510;2022-12-18T04:54:15;29.37;;;10.80;;
6117;SDS011;3089;48.202;11.510;2022-12-18T04:56:43;32.73;;;12.50;;
6117;SDS011;3089;48.202;11.510;2022-12-18T04:59:11;30.93;;;11.47;;
6117;SDS011;3089;48.202;11.510;2022-12-18T05:01:39;29.38;;;11.98;;
6117;SDS011;3089;48.202;11.510;2022-12-18T05:04:07;27.63;;;10.90;;
6117;SDS011;3089;48.202;11.510;2022-12-18T05:06:36;40.13;;;14.63;;
6117;SDS011;3089;48.202;11.510;2022-12-18T05:09:04;31.57;;;11.80;;
6117;SDS011;3089;48.202;11.510;2022-12-18T05:11:32;31.35;;;11.20;;
6117;SDS011;3089;48.202;11.510;2022-12-18T05:14:00;32.73;;;13.00;;
6117;SDS011;3089;48.202;11.510;2022-12-18T05:16:28;41.03;;;16.87;;
6117;SDS011;3089;48.202;11.510;2022-12-18T05:18:56;40.67;;;11.67;;
6117;SDS011;3089;48.202;11.510;2022-12-18T05:21:23;32.00;;;14.13;;
6117;SDS011;3089;48.202;11.510;2022-12-18T05:23:53;31.10;;;13.83;;
6117;SDS011;3089;48.202;11.510;2022-12-18T05:26:21;23.00;;;9.37;;
6117;SDS011;3089;48.202;11.510;2022-12-18T05:28:49;26.80;;;13.05;;
6117;SDS011;3089;48.202;11.510;2022-12-18T05:31:16;30.98;;;12.18;;
6117;SDS011;3089;48.202;11.510;2022-12-18T05:33:44;31.03;;;11.73;;
6117;SDS011;3089;48.202;11.510;2022-12-18T05:36:12;31.75;;;13.63;;
6117;SDS011;3089;48.202;11.510;2022-12-18T05:38:40;27.70;;;11.30;;
6117;SDS011;3089;48.202;11.510;2022-12-18T05:41:09;24.27;;;9.73;;
6117;SDS011;3089;48.202;11.510;2022-12-18T05:43:38;28.67;;;12.70;;
6117;SDS011;3089;48.202;11.510;2022-12-18T05:46:07;29.80;;;12.07;;
6117;SDS011;3089;48.202;11.510;2022-12-18T05:48:39;25.87;;;11.57;;
6117;SDS011;3089;48.202;11.510;2022-12-18T05:51:07;31.03;;;12.20;;
6117;SDS011;3089;48.202;11.510;2022-12-18T05:53:36;27.60;;;11.60;;
6117;SDS011;3089;48.202;11.510;2022-12-18T05:56:07;30.80;;;11.30;;
6117;SDS011;3089;48.202;11.510;2022-12-18T05:58:37;31.90;;;14.17;;
6117;SDS011;3089;48.202;11.510;2022-12-18T06:01:06;37.60;;;12.43;;
6117;SDS011;3089;48.202;11.510;2022-12-18T06:03:36;26.87;;;12.20;;
6117;SDS011;3089;48.202;11.510;2022-12-18T06:06:12;25.77;;;11.50;;
6117;SDS011;3089;48.202;11.510;2022-12-18T06:08:41;30.57;;;12.40;;
6117;SDS011;3089;48.202;11.510;2022-12-18T06:11:11;24.98;;;11.20;;
6117;SDS011;3089;48.202;11.510;2022-12-18T06:13:41;28.80;;;11.87;;
6117;SDS011;3089;48.202;11.510;2022-12-18T06:16:08;26.73;;;10.83;;
6117;SDS011;3089;48.202;11.510;2022-12-18T06:18:37;34.22;;;12.30;;
6117;SDS011;3089;48.202;11.510;2022-12-18T06:21:05;34.43;;;12.50;;
6117;SDS011;3089;48.202;11.510;2022-12-18T06:23:32;33.03;;;12.77;;
6117;SDS011;3089;48.202;11.510;2022-12-18T06:26:03;25.13;;;11.47;;
6117;SDS011;3089;48.202;11.510;2022-12-18T06:28:32;35.05;;;11.27;;
6117;SDS011;3089;48.202;11.510;2022-12-18T06:31:01;28.57;;;11.57;;
6117;SDS011;3089;48.202;11.510;2022-12-18T06:33:30;28.73;;;11.70;;
6117;SDS011;3089;48.202;11.510;2022-12-18T06:35:59;32.28;;;12.10;;
6117;SDS011;3089;48.202;11.510;2022-12-18T06:38:28;32.57;;;12.57;;
6117;SDS011;3089;48.202;11.510;2022-12-18T06:40:57;32.40;;;13.93;;
6117;SDS011;3089;48.202;11.510;2022-12-18T06:43:24;28.77;;;12.80;;
6117;SDS011;3089;48.202;11.510;2022-12-18T06:45:57;34.15;;;10.93;;
6117;SDS011;3089;48.202;11.510;2022-12-18T06:48:27;23.07;;;10.33;;
6117;SDS011;3089;48.202;11.510;2022-12-18T06:50:55;30.13;;;12.87;;
6117;SDS011;3089;48.202;11.510;2022-12-18T06:53:23;27.90;;;12.10;;
6117;SDS011;3089;48.202;11.510;2022-12-18T06:55:51;31.80;;;12.23;;
6117;SDS011;3089;48.202;11.510;2022-12-18T06:58:19;28.53;;;10.07;;
6117;SDS011;3089;48.202;11.510;2022-12-18T07:00:47;28.90;;;11.30;;
6117;SDS011;3089;48.202;11.510;2022-12-18T07:03:14;26.97;;;12.20;;
6117;SDS011;3089;48.202;11.510;2022-12-18T07:05:43;32.40;;;11.30;;
6117;SDS011;3089;48.202;11.510;2022-12-18T07:08:11;31.90;;;10.53;;
6117;SDS011;3089;48.202;11.510;2022-12-18T07:10:42;25.02;;;10.75;;
6117;SDS011;3089;48.202;11.510;2022-12-18T07:13:14;25.40;;;11.80;;
6117;SDS011;3089;48.202;11.510;2022-12-18T07:15:43;23.73;;;10.43;;
6117;SDS011;3089;48.202;11.510;2022-12-18T07:18:10;29.50;;;10.50;;
6117;SDS011;3089;48.202;11.510;2022-12-18T07:20:38;28.63;;;11.23;;
6117;SDS011;3089;48.202;11.510;2022-12-18T07:23:08;32.50;;;10.80;;
6117;SDS011;3089;48.202;11.510;2022-12-18T07:25:36;26.10;;;10.97;;
6117;SDS011;3089;48.202;11.510;2022-12-18T07:28:04;29.90;;;12.83;;
6117;SDS011;3089;48.202;11.510;2022-12-18T07:30:32;35.60;;;12.47;;
6117;SDS011;3089;48.202;11.510;2022-12-18T07:33:00;35.93;;;14.53;;
6117;SDS011;3089;48.202;11.510;2022-12-18T07:35:27;33.00;;;12.67;;
6117;SDS011;3089;48.202;11.510;2022-12-18T07:37:55;26.53;;;12.30;;
6117;SDS011;3089;48.202;11.510;2022-12-18T07:40:24;37.73;;;13.37;;
6117;SDS011;3089;48.202;11.510;2022-12-18T07:42:52;30.25;;;12.80;;
6117;SDS011;3089;48.202;11.510;2022-12-18T07:45:20;28.43;;;12.80;;
6117;SDS011;3089;48.202;11.510;2022-12-18T07:47:47;28.13;;;12.13;;
6117;SDS011;3089;48.202;11.510;2022-12-18T07:50:15;28.43;;;11.40;;
6117;SDS011;3089;48.202;11.510;2022-12-18T07:52:43;26.63;;;12.07;;
6117;SDS011;3089;48.202;11.510;2022-12-18T07:55:11;29.33;;;12.63;;
6117;SDS011;3089;48.202;11.510;2022-12-18T07:57:40;33.97;;;11.97;;
6117;SDS011;3089;48.202;11.510;2022-12-18T08:00:19;28.13;;;12.80;;
6117;SDS011;3089;48.202;11.510;2022-12-18T08:02:47;31.57;;;14.40;;
6117;SDS011;3089;48.202;11.510;2022-12-18T08:05:15;38.00;;;15.23;;
6117;SDS011;3089;48.202;11.510;2022-12-18T08:07:43;28.40;;;12.57;;
6117;SDS011;3089;48.202;11.510;2022-12-18T08:10:11;29.10;;;12.37;;
6117;SDS011;3089;48.202;11.510;2022-12-18T08:12:40;31.47;;;13.33;;
6117;SDS011;3089;48.202;11.510;2022-12-18T08:15:08;34.93;;;12.77;;
6117;SDS011;3089;48.202;11.510;2022-12-18T08:17:36;31.13;;;11.97;;
6117;SDS011;3089;48.202;11.510;2022-12-18T08:20:04;29.57;;;12.37;;
6117;SDS011;3089;48.202;11.510;2022-12-18T08:22:33;28.13;;;11.50;;
6117;SDS011;3089;48.202;11.510;2022-12-18T08:25:06;26.17;;;10.80;;
6117;SDS011;3089;48.202;11.510;2022-12-18T08:27:34;28.75;;;9.35;;
6117;SDS011;3089;48.202;11.510;2022-12-18T08:30:03;26.00;;;10.60;;
6117;SDS011;3089;48.202;11.510;2022-12-18T08:32:32;33.77;;;14.70;;
6117;SDS011;3089;48.202;11.510;2022-12-18T08:35:00;29.63;;;11.43;;
6117;SDS011;3089;48.202;11.510;2022-12-18T08:37:28;28.13;;;11.02;;
6117;SDS011;3089;48.202;11.510;2022-12-18T08:39:56;35.78;;;15.02;;
6117;SDS011;3089;48.202;11.510;2022-12-18T08:42:23;33.00;;;13.90;;
6117;SDS011;3089;48.202;11.510;2022-12-18T08:45:10;29.07;;;11.37;;
6117;SDS011;3089;48.202;11.510;2022-12-18T08:47:38;27.20;;;11.70;;
6117;SDS011;3089;48.202;11.510;2022-12-18T08:50:06;32.63;;;11.95;;
6117;SDS011;3089;48.202;11.510;2022-12-18T08:52:34;37.80;;;11.75;;
6117;SDS011;3089;48.202;11.510;2022-12-18T08:55:02;37.40;;;15.13;;
6117;SDS011;3089;48.202;11.510;2022-12-18T08:57:31;35.33;;;11.98;;
6117;SDS011;3089;48.202;11.510;2022-12-18T08:59:58;30.17;;;10.97;;
6117;SDS011;3089;48.202;11.510;2022-12-18T09:02:28;27.70;;;12.53;;
6117;SDS011;3089;48.202;11.510;2022-12-18T09:04:56;28.40;;;11.77;;
6117;SDS011;3089;48.202;11.510;2022-12-18T09:07:24;34.53;;;15.50;;
6117;SDS011;3089;48.202;11.510;2022-12-18T09:09:51;30.00;;;12.43;;
6117;SDS011;3089;48.202;11.510;2022-12-18T09:12:19;31.73;;;12.60;;
6117;SDS011;3089;48.202;11.510;2022-12-18T09:14:47;30.65;;;11.32;;
6117;SDS011;3089;48.202;11.510;2022-12-18T09:17:15;33.93;;;13.77;;
6117;SDS011;3089;48.202;11.510;2022-12-18T09:19:45;32.60;;;13.07;;
6117;SDS011;3089;48.202;11.510;2022-12-18T09:22:12;26.87;;;10.90;;
6117;SDS011;3089;48.202;11.510;2022-12-18T09:24:40;32.63;;;13.20;;
6117;SDS011;3089;48.202;11.510;2022-12-18T09:27:08;34.08;;;13.30;;
6117;SDS011;3089;48.202;11.510;2022-12-18T09:29:36;34.20;;;13.50;;
6117;SDS011;3089;48.202;11.510;2022-12-18T09:32:04;36.42;;;13.10;;
6117;SDS011;3089;48.202;11.510;2022-12-18T09:34:32;25.77;;;12.23;;
6117;SDS011;3089;48.202;11.510;2022-12-18T09:37:01;29.37;;;13.63;;
6117;SDS011;3089;48.202;11.510;2022-12-18T09:39:29;32.70;;;14.77;;
6117;SDS011;3089;48.202;11.510;2022-12-18T09:41:57;33.45;;;12.43;;
6117;SDS011;3089;48.202;11.510;2022-12-18T09:44:26;26.07;;;11.90;;
6117;SDS011;3089;48.202;11.510;2022-12-18T09:47:02;32.47;;;14.25;;
6117;SDS011;3089;48.202;11.510;2022-12-18T09:49:38;30.57;;;12.80;;
6117;SDS011;3089;48.202;11.510;2022-12-18T09:52:11;32.83;;;12.80;;
6117;SDS011;3089;48.202;11.510;2022-12-18T09:54:43;38.00;;;14.53;;
6117;SDS011;3089;48.202;11.510;2022-12-18T09:57:15;32.70;;;11.30;;
6117;SDS011;3089;48.202;11.510;2022-12-18T09:59:46;26.97;;;11.20;;
6117;SDS011;3089;48.202;11.510;2022-12-18T10:02:20;39.95;;;15.23;;
6117;SDS011;3089;48.202;11.510;2022-12-18T10:04:53;31.67;;;12.35;;
6117;SDS011;3089;48.202;11.510;2022-12-18T10:07:32;30.63;;;11.70;;
6117;SDS011;3089;48.202;11.510;2022-12-18T10:10:07;32.83;;;12.43;;
6117;SDS011;3089;48.202;11.510;2022-12-18T10:12:45;28.10;;;11.37;;
6117;SDS011;3089;48.202;11.510;2022-12-18T10:15:19;31.85;;;11.80;;
6117;SDS011;3089;48.202;11.510;2022-12-18T10:17:56;24.07;;;10.17;;
6117;SDS011;3089;48.202;11.510;2022-12-18T10:20:31;30.07;;;12.47;;
6117;SDS011;3089;48.202;11.510;2022-12-18T10:23:10;33.50;;;13.00;;
6117;SDS011;3089;48.202;11.510;2022-12-18T10:25:48;27.67;;;9.83;;
6117;SDS011;3089;48.202;11.510;2022-12-18T10:28:21;30.27;;;11.00;;
6117;SDS011;3089;48.202;11.510;2022-12-18T10:30:50;34.17;;;11.50;;
6117;SDS011;3089;48.202;11.510;2022-12-18T10:33:18;25.60;;;12.03;;
6117;SDS011;3089;48.202;11.510;2022-12-18T10:35:49;30.07;;;12.63;;
6117;SDS011;3089;48.202;11.510;2022-12-18T10:38:23;33.27;;;12.90;;
6117;SDS011;3089;48.202;11.510;2022-12-18T10:40:54;20.77;;;9.60;;
6117;SDS011;3089;48.202;11.510;2022-12-18T10:43:24;30.87;;;13.50;;
6117;SDS011;3089;48.202;11.510;2022-12-18T10:45:58;27.90;;;11.70;;
6117;SDS011;3089;48.202;11.510;2022-12-18T10:48:28;32.27;;;12.03;;
6117;SDS011;3089;48.202;11.510;2022-12-18T10:50:57;33.80;;;13.37;;
6117;SDS011;3089;48.202;11.510;2022-12-18T10:53:40;46.50;;;18.00;;
6117;SDS011;3089;48.202;11.510;2022-12-18T10:56:09;37.60;;;14.87;;
6117;SDS011;3089;48.202;11.510;2022-12-18T10:58:38;45.07;;;17.43;;
6117;SDS011;3089;48.202;11.510;2022-12-18T11:01:08;58.63;;;20.10;;
6117;SDS011;3089;48.202;11.510;2022-12-18T11:03:39;46.93;;;18.70;;
6117;SDS011;3089;48.202;11.510;2022-12-18T11:06:09;46.50;;;19.88;;
6117;SDS011;3089;48.202;11.510;2022-12-18T11:08:39;50.60;;;21.80;;
6117;SDS011;3089;48.202;11.510;2022-12-18T11:11:15;44.27;;;20.60;;
6117;SDS011;3089;48.202;11.510;2022-12-18T11:13:50;53.30;;;19.08;;
6117;SDS011;3089;48.202;11.510;2022-12-18T11:16:28;41.73;;;16.20;;
6117;SDS011;3089;48.202;11.510;2022-12-18T11:19:08;58.53;;;18.73;;
6117;SDS011;3089;48.202;11.510;2022-12-18T11:21:42;47.88;;;17.33;;
6117;SDS011;3089;48.202;11.510;2022-12-18T11:24:17;42.25;;;16.60;;
6117;SDS011;3089;48.202;11.510;2022-12-18T11:26:50;46.85;;;19.10;;
6117;SDS011;3089;48.202;11.510;2022-12-18T11:29:27;50.33;;;19.40;;
6117;SDS011;3089;48.202;11.510;2022-12-18T11:34:58;32.17;;;13.97;;
6117;SDS011;3089;48.202;11.510;2022-12-18T11:37:35;25.53;;;10.70;;
6117;SDS011;3089;48.202;11.510;2022-12-18T11:40:09;33.00;;;12.20;;
6117;SDS011;3089;48.202;11.510;2022-12-18T11:42:41;29.53;;;12.83;;
6117;SDS011;3089;48.202;11.510;2022-12-18T11:45:25;29.30;;;12.93;;
6117;SDS011;3089;48.202;11.510;2022-12-18T11:47:56;27.97;;;11.00;;
6117;SDS011;3089;48.202;11.510;2022-12-18T11:50:30;26.73;;;10.37;;
6117;SDS011;3089;48.202;11.510;2022-12-18T11:53:04;34.80;;;14.50;;
6117;SDS011;3089;48.202;11.510;2022-12-18T11:55:39;36.47;;;14.80;;
6117;SDS011;3089;48.202;11.510;2022-12-18T11:58:12;34.97;;;12.20;;
6117;SDS011;3089;48.202;11.510;2022-12-18T12:00:51;42.20;;;15.00;;
6117;SDS011;3089;48.202;11.510;2022-12-18T12:03:35;35.70;;;14.47;;
6117;SDS011;3089;48.202;11.510;2022-12-18T12:06:15;28.90;;;11.20;;
6117;SDS011;3089;48.202;11.510;2022-12-18T12:08:59;31.10;;;12.10;;
6117;SDS011;3089;48.202;11.510;2022-12-18T12:11:39;29.00;;;10.97;;
6117;SDS011;3089;48.202;11.510;2022-12-18T12:14:36;28.07;;;11.60;;
6117;SDS011;3089;48.202;11.510;2022-12-18T12:17:14;27.03;;;11.70;;
6117;SDS011;3089;48.202;11.510;2022-12-18T12:19:52;24.90;;;10.93;;
6117;SDS011;3089;48.202;11.510;2022-12-18T12:22:30;28.60;;;11.83;;
6117;SDS011;3089;48.202;11.510;2022-12-18T12:25:13;22.80;;;10.40;;
6117;SDS011;3089;48.202;11.510;2022-12-18T12:27:53;24.27;;;10.70;;
6117;SDS011;3089;48.202;11.510;2022-12-18T12:30:33;28.07;;;11.53;;
6117;SDS011;3089;48.202;11.510;2022-12-18T12:33:11;29.20;;;10.07;;
6117;SDS011;3089;48.202;11.510;2022-12-18T12:35:47;21.17;;;10.03;;
6117;SDS011;3089;48.202;11.510;2022-12-18T12:38:22;32.77;;;12.03;;
6117;SDS011;3089;48.202;11.510;2022-12-18T12:40:58;29.20;;;11.57;;
6117;SDS011;3089;48.202;11.510;2022-12-18T12:43:33;28.40;;;11.20;;
6117;SDS011;3089;48.202;11.510;2022-12-18T12:46:15;19.57;;;8.00;;
6117;SDS011;3089;48.202;11.510;2022-12-18T12:48:48;27.87;;;9.87;;
6117;SDS011;3089;48.202;11.510;2022-12-18T12:51:20;25.27;;;11.13;;
6117;SDS011;3089;48.202;11.510;2022-12-18T12:53:51;22.63;;;9.87;;
6117;SDS011;3089;48.202;11.510;2022-12-18T12:56:20;27.20;;;11.13;;
6117;SDS011;3089;48.202;11.510;2022-12-18T12:58:54;24.90;;;10.23;;
6117;SDS011;3089;48.202;11.510;2022-12-18T13:01:32;20.60;;;9.03;;
6117;SDS011;3089;48.202;11.510;2022-12-18T13:04:08;24.80;;;8.50;;
6117;SDS011;3089;48.202;11.510;2022-12-18T13:06:47;21.67;;;9.00;;
6117;SDS011;3089;48.202;11.510;2022-12-18T13:09:20;24.37;;;10.00;;
6117;SDS011;3089;48.202;11.510;2022-12-18T13:11:48;31.50;;;10.80;;
6117;SDS011;3089;48.202;11.510;2022-12-18T13:14:35;23.33;;;10.00;;
6117;SDS011;3089;48.202;11.510;2022-12-18T13:17:26;24.13;;;9.83;;
6117;SDS011;3089;48.202;11.510;2022-12-18T13:20:04;25.10;;;10.17;;
6117;SDS011;3089;48.202;11.510;2022-12-18T13:22:40;27.30;;;9.47;;
6117;SDS011;3089;48.202;11.510;2022-12-18T13:25:29;37.63;;;12.17;;
6117;SDS011;3089;48.202;11.510;2022-12-18T13:28:07;22.10;;;9.77;;
6117;SDS011;3089;48.202;11.510;2022-12-18T13:33:36;32.03;;;11.50;;
6117;SDS011;3089;48.202;11.510;2022-12-18T13:36:30;23.80;;;8.97;;
6117;SDS011;3089;48.202;11.510;2022-12-18T13:45:35;24.90;;;10.77;;
6117;SDS011;3089;48.202;11.510;2022-12-18T13:48:19;25.37;;;10.10;;
6117;SDS011;3089;48.202;11.510;2022-12-18T13:50:52;28.40;;;11.27;;
6117;SDS011;3089;48.202;11.510;2022-12-18T13:53:26;25.10;;;10.50;;
6117;SDS011;3089;48.202;11.510;2022-12-18T13:55:56;27.30;;;9.87;;
6117;SDS011;3089;48.202;11.510;2022-12-18T13:58:24;27.90;;;10.70;;
6117;SDS011;3089;48.202;11.510;2022-12-18T14:00:52;20.03;;;9.03;;
6117;SDS011;3089;48.202;11.510;2022-12-18T14:03:23;25.63;;;10.30;;
6117;SDS011;3089;48.202;11.510;2022-12-18T14:05:57;24.03;;;10.40;;
6117;SDS011;3089;48.202;11.510;2022-12-18T14:08:29;26.73;;;11.90;;
6117;SDS011;3089;48.202;11.510;2022-12-18T14:11:03;22.00;;;9.43;;
6117;SDS011;3089;48.202;11.510;2022-12-18T14:13:36;29.33;;;10.10;;
6117;SDS011;3089;48.202;11.510;2022-12-18T14:16:06;24.43;;;9.50;;
6117;SDS011;3089;48.202;11.510;2022-12-18T14:18:43;30.27;;;14.07;;
6117;SDS011;3089;48.202;11.510;2022-12-18T14:24:05;28.13;;;11.83;;
6117;SDS011;3089;48.202;11.510;2022-12-18T14:26:39;26.70;;;9.63;;
6117;SDS011;3089;48.202;11.510;2022-12-18T14:29:18;28.83;;;14.00;;
6117;SDS011;3089;48.202;11.510;2022-12-18T14:32:05;23.23;;;9.97;;
6117;SDS011;3089;48.202;11.510;2022-12-18T14:34:44;22.50;;;10.17;;
6117;SDS011;3089;48.202;11.510;2022-12-18T14:37:14;28.67;;;10.10;;
6117;SDS011;3089;48.202;11.510;2022-12-18T14:39:54;32.50;;;12.67;;
6117;SDS011;3089;48.202;11.510;2022-12-18T14:42:24;24.63;;;10.10;;
6117;SDS011;3089;48.202;11.510;2022-12-18T14:48:07;26.07;;;11.83;;
6117;SDS011;3089;48.202;11.510;2022-12-18T14:50:40;39.07;;;14.53;;
6117;SDS011;3089;48.202;11.510;2022-12-18T14:53:17;29.43;;;12.00;;
6117;SDS011;3089;48.202;11.510;2022-12-18T14:55:47;25.13;;;9.30;;
6117;SDS011;3089;48.202;11.510;2022-12-18T14:58:15;28.73;;;11.17;;
6117;SDS011;3089;48.202;11.510;2022-12-18T15:00:45;26.00;;;9.90;;
6117;SDS011;3089;48.202;11.510;2022-12-18T15:03:14;26.73;;;9.80;;
6117;SDS011;3089;48.202;11.510;2022-12-18T15:05:47;24.73;;;10.03;;
6117;SDS011;3089;48.202;11.510;2022-12-18T15:08:27;21.00;;;9.30;;
6117;SDS011;3089;48.202;11.510;2022-12-18T15:10:58;21.67;;;9.30;;
6117;SDS011;3089;48.202;11.510;2022-12-18T15:13:26;36.80;;;13.53;;
6117;SDS011;3089;48.202;11.510;2022-12-18T15:15:54;25.03;;;11.20;;
6117;SDS011;3089;48.202;11.510;2022-12-18T15:18:27;26.37;;;11.40;;
6117;SDS011;3089;48.202;11.510;2022-12-18T15:21:06;27.17;;;11.43;;
6117;SDS011;3089;48.202;11.510;2022-12-18T15:23:36;27.20;;;12.10;;